メインページ
METAR-TAF:

METAR-TAF

空港 :

グアテマラシティ, グアテマラ

ラ・アウロラ国際空港

緯度: 14-35N, 経度: 090-31W, 海抜: 1489m

現時点の気象観測

当レポートは39分前の19:00(UTC)に作成
の風 8kt
気温 26°C
湿度 42%
気圧 1024 hPa
視程10km以上
高度2000ftの雲は散在している

METAR: MGGT 251900Z 18008KT 9999 SCT020 26/12 Q1024 A3024

時間: 13:39 (19:39 UTC)

予報

当レポートは2時間39分前の17:00(UTC)に作成
予報は25日の 18時(UTC)から 26日の 18時(UTC)まで有効
の風 8kt
視程10km以上
高度1800ftの雲はほとんどない
確率 30% :
25日の 20時(UTC)から 26日の 03時(UTC)まで一時的に
視程: 8000m
高度2000ftの雲は散在している, 塔状積雲.
26日の 01時(UTC)から 26日の 03時(UTC)まで徐々に
視程10km以上
1,500メートル以下は雲なし、積乱雲なし
26日の 04時(UTC)から 26日の 15時(UTC)まで一時的に
の風 8kt
高度1400ftの雲はほとんどない
26日の 15時(UTC)から 26日の 17時(UTC)まで徐々に
高度1800ftの雲はほとんどない

TAF: MGGT 251700Z 2518/2618 18008KT 9999 FEW018 TX27/2520Z TN13/2612Z PROB30 TEMPO 2520/2603 8000 SCT020TCU BECMG 2601/2603 CAVOK TEMPO 2604/2615 36008KT FEW014 BECMG 2615/2617 FEW018

4,000以上の空港の気象観測と天気予報(METAR報とTAF報)

利用可能な観測所は地図上に黄色い丸と赤い丸で示す。

丸の上にカーソルを重ねると観測所名を参照できる。

次にクリックすると気象観測と天気予報を参照できる。

マップの切り替え:黒色「×」印の緑ボタンをクリックして拡大、「-」印の緑ボタンをクリックして縮小、緑色の三角印をクリックして隣りの地図に切り替え


METAR-TAF: